createdAt,value
2023-03-08T00:00:10.226Z,97579.34
2023-03-08T00:03:00.817Z,97593.84
2023-03-08T00:05:28.636Z,97580.63
2023-03-08T00:07:55.990Z,97593.66
2023-03-08T00:10:23.747Z,97594.25
2023-03-08T00:12:51.017Z,97581.78
2023-03-08T00:15:19.313Z,97598.41
2023-03-08T00:17:46.556Z,97592.16
2023-03-08T00:20:14.467Z,97594.31
2023-03-08T00:22:42.457Z,97591.50
2023-03-08T00:25:11.483Z,97566.59
2023-03-08T00:27:38.807Z,97591.34
2023-03-08T00:30:07.218Z,97600.16
2023-03-08T00:32:34.599Z,97591.81
2023-03-08T00:35:02.175Z,97593.78
2023-03-08T00:37:29.439Z,97598.75
2023-03-08T00:39:56.966Z,97591.84
2023-03-08T00:42:25.304Z,97594.84
2023-03-08T00:44:53.039Z,97608.69
2023-03-08T00:47:20.291Z,97602.00
2023-03-08T00:49:47.793Z,97602.59
2023-03-08T00:52:15.003Z,97590.06
2023-03-08T00:54:44.967Z,97606.28
2023-03-08T00:57:12.231Z,97593.66
2023-03-08T00:59:39.808Z,97602.66
2023-03-08T01:02:07.048Z,97601.69
2023-03-08T01:04:34.781Z,97599.06
2023-03-08T01:07:02.052Z,97578.22
2023-03-08T01:09:29.623Z,97610.84
2023-03-08T01:11:57.027Z,97596.56
2023-03-08T01:14:24.673Z,97613.19
2023-03-08T01:16:51.896Z,97615.47
2023-03-08T01:19:19.816Z,97613.50
2023-03-08T01:21:47.101Z,97608.22
2023-03-08T01:24:14.724Z,97597.97
2023-03-08T01:26:41.946Z,97603.81
2023-03-08T01:29:09.460Z,97607.03
2023-03-08T01:31:36.975Z,97608.56
2023-03-08T01:34:04.540Z,97611.06
2023-03-08T01:36:32.182Z,97584.09
2023-03-08T01:39:02.808Z,97611.06
2023-03-08T01:41:32.021Z,97598.03
2023-03-08T01:43:59.969Z,97600.41
2023-03-08T01:46:32.421Z,97606.63
2023-03-08T01:49:27.270Z,97610.78
2023-03-08T01:52:14.705Z,97604.28
2023-03-08T01:54:48.135Z,97610.22
2023-03-08T01:57:24.030Z,97613.56
2023-03-08T01:59:56.088Z,97619.16
2023-03-08T02:02:28.512Z,97609.69
2023-03-08T02:04:57.691Z,97621.63
2023-03-08T02:07:26.857Z,97617.53
2023-03-08T02:09:54.812Z,97619.66
2023-03-08T02:12:22.676Z,97623.81
2023-03-08T02:14:50.658Z,97611.72
2023-03-08T02:17:17.970Z,97622.66
2023-03-08T02:19:52.749Z,97614.19
2023-03-08T02:22:21.051Z,97631.31
2023-03-08T02:24:49.010Z,97622.53
2023-03-08T02:27:27.153Z,97629.03
2023-03-08T02:29:54.714Z,97614.59
2023-03-08T02:32:23.501Z,97621.03
2023-03-08T02:34:51.101Z,97632.13
2023-03-08T02:37:18.338Z,97640.16
2023-03-08T02:39:48.739Z,97646.59
2023-03-08T02:42:16.198Z,97652.75
2023-03-08T02:44:43.928Z,97646.59
2023-03-08T02:47:11.282Z,97643.81
2023-03-08T02:49:38.915Z,97663.31
2023-03-08T02:52:06.172Z,97650.59
2023-03-08T02:54:33.759Z,97661.56
2023-03-08T02:57:01.730Z,97653.41
2023-03-08T02:59:30.977Z,97650.88
2023-03-08T03:01:59.817Z,97654.78
2023-03-08T03:04:33.256Z,97664.63
2023-03-08T03:07:00.867Z,97649.75
2023-03-08T03:09:31.279Z,97650.59
2023-03-08T03:11:58.641Z,97640.19
2023-03-08T03:14:28.370Z,97668.38
2023-03-08T03:16:56.688Z,97655.88
2023-03-08T03:19:24.244Z,97672.53
2023-03-08T03:21:51.496Z,97689.78
2023-03-08T03:24:19.609Z,97675.75
2023-03-08T03:26:56.514Z,97663.53
2023-03-08T03:29:26.332Z,97674.78
2023-03-08T03:32:01.674Z,97686.75
2023-03-08T03:34:29.994Z,97683.94
2023-03-08T03:36:57.531Z,97671.31
2023-03-08T03:39:25.104Z,97667.94
2023-03-08T03:41:53.278Z,97656.72
2023-03-08T03:44:20.922Z,97667.28
2023-03-08T03:46:49.358Z,97684.81
2023-03-08T03:49:22.185Z,97685.22
2023-03-08T03:51:49.413Z,97690.03
2023-03-08T03:54:24.669Z,97687.44
2023-03-08T03:56:52.460Z,97679.69
2023-03-08T03:59:24.963Z,97693.53
2023-03-08T04:01:54.161Z,97694.66
2023-03-08T04:04:27.328Z,97699.25
2023-03-08T04:06:55.510Z,97704.50
2023-03-08T04:09:26.473Z,97720.94
2023-03-08T04:12:06.000Z,97700.63
2023-03-08T04:14:34.979Z,97705.78
2023-03-08T04:17:03.607Z,97705.91
2023-03-08T04:19:38.916Z,97717.28
2023-03-08T04:22:07.530Z,97708.44
2023-03-08T04:24:42.922Z,97701.91
2023-03-08T04:27:15.979Z,97716.44
2023-03-08T04:29:43.807Z,97708.81
2023-03-08T04:32:11.407Z,97700.63
2023-03-08T04:34:44.884Z,97724.22
2023-03-08T04:37:15.060Z,97719.97
2023-03-08T04:39:47.600Z,97724.84
2023-03-08T04:42:16.574Z,97713.41
2023-03-08T04:44:45.480Z,97729.28
2023-03-08T04:47:15.238Z,97728.69
2023-03-08T04:49:46.007Z,97716.91
2023-03-08T04:52:13.840Z,97726.78
2023-03-08T04:54:43.074Z,97708.97
2023-03-08T04:57:26.300Z,97716.75
2023-03-08T04:59:56.789Z,97735.94
2023-03-08T05:02:24.678Z,97730.09
2023-03-08T05:04:52.401Z,97732.03
2023-03-08T05:07:20.719Z,97732.06
2023-03-08T05:09:49.738Z,97749.84
2023-03-08T05:12:17.051Z,97722.44
2023-03-08T05:14:53.463Z,97754.09
2023-03-08T05:17:21.762Z,97735.38
2023-03-08T05:19:50.489Z,97755.41
2023-03-08T05:22:22.426Z,97742.88
2023-03-08T05:24:52.773Z,97765.94
2023-03-08T05:27:21.186Z,97776.81
2023-03-08T05:29:48.773Z,97762.38
2023-03-08T05:32:16.104Z,97761.28
2023-03-08T05:34:43.701Z,97756.53
2023-03-08T05:37:15.811Z,97747.63
2023-03-08T05:39:44.922Z,97745.50
2023-03-08T05:42:21.786Z,97760.56
2023-03-08T05:44:49.311Z,97778.72
2023-03-08T05:47:21.246Z,97788.72
2023-03-08T05:49:48.876Z,97787.06
2023-03-08T05:52:18.140Z,97795.50
2023-03-08T05:54:45.929Z,97793.72
2023-03-08T05:57:18.183Z,97786.19
2023-03-08T05:59:46.203Z,97788.34
2023-03-08T06:02:17.005Z,97803.47
2023-03-08T06:04:48.700Z,97775.34
2023-03-08T06:07:19.109Z,97783.63
2023-03-08T06:09:51.943Z,97792.03
2023-03-08T06:12:19.402Z,97804.97
2023-03-08T06:14:51.144Z,97798.91
2023-03-08T06:17:21.045Z,97795.69
2023-03-08T06:19:50.809Z,97796.44
2023-03-08T06:22:18.741Z,97819.16
2023-03-08T06:24:49.932Z,97808.28
2023-03-08T06:27:23.079Z,97816.50
2023-03-08T06:29:52.964Z,97823.00
2023-03-08T06:32:22.029Z,97829.81
2023-03-08T06:34:49.637Z,97831.16
2023-03-08T06:37:17.261Z,97841.34
2023-03-08T06:39:44.957Z,97842.72
2023-03-08T06:42:12.414Z,97854.53
2023-03-08T06:44:40.433Z,97845.25
2023-03-08T06:47:07.783Z,97873.09
2023-03-08T06:49:36.239Z,97872.03
2023-03-08T06:52:03.689Z,97877.78
2023-03-08T06:54:31.723Z,97892.47
2023-03-08T06:56:59.055Z,97864.81
2023-03-08T06:59:26.661Z,97912.97
2023-03-08T07:01:53.904Z,97893.75
2023-03-08T07:04:21.541Z,97894.28
2023-03-08T07:06:48.779Z,97915.72
2023-03-08T07:09:16.376Z,97909.03
2023-03-08T07:11:43.591Z,97912.25
2023-03-08T07:14:11.140Z,97890.88
2023-03-08T07:16:38.893Z,97920.09
2023-03-08T07:19:06.420Z,97938.44
2023-03-08T07:21:33.678Z,97924.38
2023-03-08T07:24:01.300Z,97927.84
2023-03-08T07:26:28.593Z,97939.00
2023-03-08T07:28:57.875Z,97952.94
2023-03-08T07:31:26.686Z,97953.72
2023-03-08T07:33:54.195Z,97961.22
2023-03-08T07:36:21.552Z,97935.53
2023-03-08T07:38:49.812Z,97960.22
2023-03-08T07:41:17.990Z,97983.78
2023-03-08T07:43:45.560Z,97980.09
2023-03-08T07:46:20.550Z,97983.13
2023-03-08T07:48:48.065Z,97978.03
2023-03-08T07:51:15.370Z,98005.63
2023-03-08T07:53:42.919Z,97996.97
2023-03-08T07:56:10.491Z,97989.94
2023-03-08T07:58:38.025Z,98016.66
2023-03-08T08:01:13.023Z,98007.75
2023-03-08T08:03:40.989Z,98014.59
2023-03-08T08:06:09.051Z,98003.41
2023-03-08T08:08:36.633Z,98039.59
2023-03-08T08:11:10.706Z,98053.22
2023-03-08T08:13:38.249Z,98047.00
2023-03-08T08:16:07.468Z,98052.50
2023-03-08T08:18:36.346Z,98055.09
2023-03-08T08:21:09.128Z,98061.00
2023-03-08T08:23:37.247Z,98057.09
2023-03-08T08:26:08.816Z,98067.06
2023-03-08T08:28:37.961Z,98071.44
2023-03-08T08:31:10.584Z,98062.66
2023-03-08T08:33:38.525Z,98068.72
2023-03-08T08:36:09.490Z,98081.84
2023-03-08T08:38:37.554Z,98060.06
2023-03-08T08:41:07.066Z,98071.78
2023-03-08T08:43:36.441Z,98100.94
2023-03-08T08:46:05.524Z,98092.63
2023-03-08T08:48:33.378Z,98102.88
2023-03-08T08:51:01.336Z,98114.41
2023-03-08T08:53:29.113Z,98108.84
2023-03-08T08:55:57.044Z,98110.88
2023-03-08T08:58:24.904Z,98113.38
2023-03-08T09:00:52.285Z,98113.56
2023-03-08T09:03:19.843Z,98092.00
2023-03-08T09:05:47.184Z,98117.59
2023-03-08T09:08:14.689Z,98146.03
2023-03-08T09:10:42.451Z,98147.66
2023-03-08T09:13:10.983Z,98142.28
2023-03-08T09:15:38.251Z,98142.94
2023-03-08T09:18:06.109Z,98154.22
2023-03-08T09:20:33.391Z,98162.47
2023-03-08T09:23:01.014Z,98167.75
2023-03-08T09:25:28.252Z,98163.97
2023-03-08T09:27:55.891Z,98161.69
2023-03-08T09:30:23.202Z,98174.13
2023-03-08T09:32:50.771Z,98181.59
2023-03-08T09:35:18.115Z,98173.38
2023-03-08T09:37:45.785Z,98186.53
2023-03-08T09:40:26.109Z,98185.72
2023-03-08T09:43:00.924Z,98187.03
2023-03-08T09:45:29.738Z,98184.34
2023-03-08T09:48:04.760Z,98184.41
2023-03-08T09:50:35.069Z,98200.00
2023-03-08T09:53:18.534Z,98185.72
2023-03-08T09:55:55.846Z,98194.22
2023-03-08T09:58:58.334Z,98203.25
2023-03-08T10:01:28.903Z,98216.50
2023-03-08T10:04:14.631Z,98216.47
2023-03-08T10:07:26.786Z,98232.75
2023-03-08T10:10:23.494Z,98221.88
2023-03-08T10:13:06.132Z,98228.69
2023-03-08T10:15:40.832Z,98226.91
2023-03-08T10:18:16.311Z,98219.41
2023-03-08T10:20:44.236Z,98236.41
2023-03-08T10:23:16.152Z,98237.63
2023-03-08T10:25:44.713Z,98221.91
2023-03-08T10:28:24.299Z,98240.41
2023-03-08T10:31:00.948Z,98247.94
2023-03-08T10:33:36.367Z,98240.38
2023-03-08T10:36:12.677Z,98244.13
2023-03-08T10:38:40.050Z,98240.06
2023-03-08T10:41:10.657Z,98253.00
2023-03-08T10:43:41.846Z,98238.50
2023-03-08T10:46:14.859Z,98246.13
2023-03-08T10:48:42.243Z,98251.47
2023-03-08T10:51:23.555Z,98275.06
2023-03-08T10:53:59.732Z,98254.19
2023-03-08T10:56:44.972Z,98243.84
2023-03-08T10:59:23.001Z,98264.06
2023-03-08T11:01:54.879Z,98274.06
2023-03-08T11:04:24.577Z,98273.16
2023-03-08T11:06:52.486Z,98272.25
2023-03-08T11:09:31.682Z,98253.94
2023-03-08T11:12:00.642Z,98269.25
2023-03-08T11:14:30.196Z,98281.56
2023-03-08T11:17:00.662Z,98290.22
2023-03-08T11:19:57.598Z,98288.69
2023-03-08T11:22:41.190Z,98288.41
2023-03-08T11:25:19.245Z,98276.38
2023-03-08T11:28:05.914Z,98262.03
2023-03-08T11:30:46.511Z,98283.50
2023-03-08T11:33:25.993Z,98287.88
2023-03-08T11:36:03.096Z,98281.44
2023-03-08T11:38:32.982Z,98292.66
2023-03-08T11:41:14.838Z,98298.69
2023-03-08T11:44:22.126Z,98299.75
2023-03-08T11:47:27.163Z,98308.38
2023-03-08T11:50:19.651Z,98302.25
2023-03-08T11:52:56.001Z,98306.34
2023-03-08T11:55:51.018Z,98312.59
2023-03-08T11:58:28.363Z,98301.66
2023-03-08T12:01:01.378Z,98311.84
2023-03-08T12:03:37.371Z,98309.66
2023-03-08T12:06:26.417Z,98315.41
2023-03-08T12:09:01.665Z,98329.78
2023-03-08T12:11:38.898Z,98311.91
2023-03-08T12:14:30.292Z,98315.88
2023-03-08T12:17:40.765Z,98324.00
2023-03-08T12:20:14.144Z,98317.63
2023-03-08T12:23:11.469Z,98329.09
2023-03-08T12:25:42.564Z,98330.38
2023-03-08T12:28:28.569Z,98320.81
2023-03-08T12:31:30.248Z,98336.25
2023-03-08T12:34:00.103Z,98326.44
2023-03-08T12:36:42.903Z,98327.50
2023-03-08T12:39:32.854Z,98329.75
2023-03-08T12:42:16.739Z,98335.53
2023-03-08T12:44:44.693Z,98336.91
2023-03-08T12:47:11.894Z,98332.84
2023-03-08T12:49:43.747Z,98328.56
2023-03-08T12:52:25.098Z,98336.00
2023-03-08T12:55:03.118Z,98338.84
2023-03-08T12:57:33.706Z,98336.72
2023-03-08T13:00:24.674Z,98337.06
2023-03-08T13:03:13.649Z,98341.03
2023-03-08T13:05:47.878Z,98353.38
2023-03-08T13:08:15.231Z,98344.91
2023-03-08T13:11:10.345Z,98353.94
2023-03-08T13:13:47.112Z,98346.88
2023-03-08T13:16:32.018Z,98339.34
2023-03-08T13:19:30.878Z,98357.44
2023-03-08T13:22:38.880Z,98365.94
2023-03-08T13:25:28.385Z,98352.78
2023-03-08T13:28:03.986Z,98350.22
2023-03-08T13:30:37.678Z,98348.38
2023-03-08T13:33:14.131Z,98363.22
2023-03-08T13:35:41.582Z,98354.00
2023-03-08T13:38:21.618Z,98356.19
2023-03-08T13:40:54.572Z,98368.94
2023-03-08T13:43:23.826Z,98366.72
2023-03-08T13:45:54.914Z,98365.63
2023-03-08T13:48:24.729Z,98360.81
2023-03-08T13:50:53.232Z,98374.56
2023-03-08T13:53:25.199Z,98373.72
2023-03-08T13:55:56.692Z,98361.63
2023-03-08T13:58:38.561Z,98375.91
2023-03-08T14:01:15.269Z,98369.91
2023-03-08T14:03:44.046Z,98367.63
2023-03-08T14:06:30.928Z,98365.22
2023-03-08T14:09:04.570Z,98367.09
2023-03-08T14:11:39.895Z,98364.84
2023-03-08T14:14:16.575Z,98365.31
2023-03-08T14:16:44.090Z,98370.97
2023-03-08T14:19:14.754Z,98370.50
2023-03-08T14:22:00.917Z,98376.56
2023-03-08T14:24:34.600Z,98372.53
2023-03-08T14:27:24.523Z,98382.47
2023-03-08T14:30:02.846Z,98383.69
2023-03-08T14:32:32.859Z,98380.56
2023-03-08T14:35:22.913Z,98374.53
2023-03-08T14:37:55.947Z,98378.53
2023-03-08T14:40:30.280Z,98369.38
2023-03-08T14:43:02.446Z,98378.25
2023-03-08T14:45:32.895Z,98375.41
2023-03-08T14:48:19.883Z,98369.06
2023-03-08T14:51:02.678Z,98373.63
2023-03-08T14:53:34.935Z,98373.34
2023-03-08T14:56:06.963Z,98363.34
2023-03-08T14:58:43.754Z,98364.44
2023-03-08T15:01:11.341Z,98372.94
2023-03-08T15:03:38.771Z,98368.50
2023-03-08T15:06:16.644Z,98364.03
2023-03-08T15:08:44.053Z,98365.31
2023-03-08T15:11:11.635Z,98371.63
2023-03-08T15:13:38.927Z,98367.44
2023-03-08T15:16:07.620Z,98372.66
2023-03-08T15:18:35.076Z,98383.97
2023-03-08T15:21:03.000Z,98384.97
2023-03-08T15:23:34.122Z,98378.16
2023-03-08T15:26:01.750Z,98384.19
2023-03-08T15:28:28.979Z,98378.84
2023-03-08T15:30:56.507Z,98381.66
2023-03-08T15:33:24.214Z,98378.72
2023-03-08T15:35:52.249Z,98372.03
2023-03-08T15:38:21.556Z,98364.31
2023-03-08T15:40:49.358Z,98373.88
2023-03-08T15:43:16.659Z,98371.00
2023-03-08T15:45:44.201Z,98383.72
2023-03-08T15:48:17.314Z,98378.16
2023-03-08T15:50:45.558Z,98378.00
2023-03-08T15:53:18.587Z,98383.59
2023-03-08T15:55:53.626Z,98387.06
2023-03-08T15:58:20.920Z,98388.50
2023-03-08T16:00:49.129Z,98390.72
2023-03-08T16:03:26.102Z,98390.19
2023-03-08T16:05:55.457Z,98400.38
2023-03-08T16:08:25.924Z,98391.88
2023-03-08T16:10:53.551Z,98407.63
2023-03-08T16:13:23.976Z,98405.97
2023-03-08T16:15:51.514Z,98401.34
2023-03-08T16:18:18.803Z,98408.88
2023-03-08T16:20:46.400Z,98404.66
2023-03-08T16:23:13.816Z,98416.97
2023-03-08T16:25:43.318Z,98404.94
2023-03-08T16:28:10.977Z,98419.34
2023-03-08T16:30:42.974Z,98430.91
2023-03-08T16:33:10.354Z,98424.31
2023-03-08T16:35:37.948Z,98426.44
2023-03-08T16:38:05.206Z,98414.38
2023-03-08T16:40:33.443Z,98418.56
2023-03-08T16:43:00.875Z,98425.50
2023-03-08T16:45:28.420Z,98437.09
2023-03-08T16:47:55.892Z,98427.94
2023-03-08T16:50:26.450Z,98442.72
2023-03-08T16:52:54.772Z,98439.66
2023-03-08T16:55:22.957Z,98439.97
2023-03-08T16:57:50.548Z,98443.53
2023-03-08T17:00:18.766Z,98444.06
2023-03-08T17:02:46.032Z,98446.69
2023-03-08T17:05:14.035Z,98454.09
2023-03-08T17:07:41.249Z,98445.84
2023-03-08T17:10:09.431Z,98464.44
2023-03-08T17:12:36.827Z,98460.75
2023-03-08T17:15:04.920Z,98454.66
2023-03-08T17:17:32.176Z,98476.06
2023-03-08T17:20:00.703Z,98471.41
2023-03-08T17:22:28.074Z,98470.66
2023-03-08T17:24:55.589Z,98465.69
2023-03-08T17:27:24.244Z,98472.09
2023-03-08T17:29:51.976Z,98467.00
2023-03-08T17:32:19.459Z,98461.22
2023-03-08T17:34:47.020Z,98473.53
2023-03-08T17:37:15.832Z,98476.94
2023-03-08T17:39:43.512Z,98477.50
2023-03-08T17:42:10.876Z,98476.81
2023-03-08T17:44:38.395Z,98477.22
2023-03-08T17:47:05.673Z,98473.47
2023-03-08T17:49:34.210Z,98458.66
2023-03-08T17:52:01.702Z,98462.91
2023-03-08T17:54:29.258Z,98473.34
2023-03-08T17:56:56.642Z,98468.22
2023-03-08T17:59:24.373Z,98461.06
2023-03-08T18:01:51.606Z,98470.28
2023-03-08T18:04:22.138Z,98471.16
2023-03-08T18:06:49.407Z,98471.66
2023-03-08T18:09:17.292Z,98468.16
2023-03-08T18:11:44.656Z,98448.38
2023-03-08T18:14:14.149Z,98458.22
2023-03-08T18:16:42.803Z,98474.31
2023-03-08T18:19:11.059Z,98461.69
2023-03-08T18:21:41.130Z,98469.50
2023-03-08T18:24:13.241Z,98464.94
2023-03-08T18:26:40.856Z,98457.25
2023-03-08T18:29:08.441Z,98453.31
2023-03-08T18:31:37.372Z,98453.66
2023-03-08T18:34:08.467Z,98446.19
2023-03-08T18:36:37.138Z,98455.94
2023-03-08T18:39:06.819Z,98466.59
2023-03-08T18:41:34.771Z,98471.66
2023-03-08T18:44:02.312Z,98463.03
2023-03-08T18:46:31.253Z,98454.84
2023-03-08T18:49:01.851Z,98458.44
2023-03-08T18:51:30.936Z,98455.31
2023-03-08T18:53:59.086Z,98445.22
2023-03-08T18:56:27.619Z,98454.34
2023-03-08T18:58:57.707Z,98463.69
2023-03-08T19:01:25.402Z,98451.34
2023-03-08T19:03:53.026Z,98466.81
2023-03-08T19:06:20.529Z,98453.50
2023-03-08T19:08:48.229Z,98453.41
2023-03-08T19:11:19.130Z,98450.00
2023-03-08T19:13:47.941Z,98457.22
2023-03-08T19:16:25.413Z,98439.94
2023-03-08T19:18:55.588Z,98452.91
2023-03-08T19:21:27.055Z,98453.63
2023-03-08T19:23:54.961Z,98443.06
2023-03-08T19:26:37.853Z,98443.41
2023-03-08T19:29:11.675Z,98446.38
2023-03-08T19:31:43.685Z,98452.63
2023-03-08T19:34:13.427Z,98440.38
2023-03-08T19:36:42.431Z,98447.09
2023-03-08T19:39:15.435Z,98446.13
2023-03-08T19:41:43.730Z,98448.88
2023-03-08T19:44:11.348Z,98450.81
2023-03-08T19:46:39.562Z,98447.78
2023-03-08T19:49:08.716Z,98439.38
2023-03-08T19:51:36.418Z,98441.91
2023-03-08T19:54:06.155Z,98446.56
2023-03-08T19:56:34.457Z,98444.75
2023-03-08T19:59:02.538Z,98441.50
2023-03-08T20:01:30.057Z,98440.69
2023-03-08T20:03:57.714Z,98435.44
2023-03-08T20:06:29.157Z,98429.38
2023-03-08T20:08:57.100Z,98436.81
2023-03-08T20:11:24.980Z,98437.66
2023-03-08T20:13:52.660Z,98435.47
2023-03-08T20:16:20.999Z,98441.97
2023-03-08T20:18:51.856Z,98449.19
2023-03-08T20:21:20.296Z,98439.44
2023-03-08T20:23:55.228Z,98450.81
2023-03-08T20:26:24.664Z,98449.06
2023-03-08T20:28:52.976Z,98435.31
2023-03-08T20:31:20.537Z,98448.63
2023-03-08T20:33:48.206Z,98449.34
2023-03-08T20:36:16.114Z,98438.31
2023-03-08T20:38:43.694Z,98442.13
2023-03-08T20:41:15.934Z,98444.97
2023-03-08T20:43:45.898Z,98452.31
2023-03-08T20:46:16.083Z,98459.31
2023-03-08T20:48:45.371Z,98443.97
2023-03-08T20:51:15.502Z,98450.28
2023-03-08T20:53:44.197Z,98450.06
2023-03-08T20:56:16.747Z,98452.72
2023-03-08T20:58:44.801Z,98446.94
2023-03-08T21:01:18.364Z,98438.72
2023-03-08T21:03:46.874Z,98445.91
2023-03-08T21:06:22.430Z,98449.94
2023-03-08T21:08:50.669Z,98444.19
2023-03-08T21:11:18.709Z,98448.72
2023-03-08T21:13:48.203Z,98453.63
2023-03-08T21:16:17.314Z,98435.94
2023-03-08T21:18:49.173Z,98448.38
2023-03-08T21:21:23.512Z,98439.13
2023-03-08T21:23:52.886Z,98435.25
2023-03-08T21:26:21.178Z,98433.22
2023-03-08T21:28:48.783Z,98444.50
2023-03-08T21:31:17.477Z,98439.78
2023-03-08T21:33:45.151Z,98434.41
2023-03-08T21:36:12.511Z,98433.06
2023-03-08T21:38:40.074Z,98442.00
2023-03-08T21:41:16.422Z,98432.66
2023-03-08T21:43:44.205Z,98432.22
2023-03-08T21:46:11.550Z,98436.34
2023-03-08T21:48:39.127Z,98429.31
2023-03-08T21:51:07.616Z,98428.81
2023-03-08T21:53:36.056Z,98429.72
2023-03-08T21:56:07.691Z,98430.16
2023-03-08T21:58:35.732Z,98428.47
2023-03-08T22:01:03.454Z,98434.78
2023-03-08T22:03:31.463Z,98425.66
2023-03-08T22:05:59.335Z,98437.75
2023-03-08T22:08:27.034Z,98430.28
2023-03-08T22:10:54.819Z,98419.66
2023-03-08T22:13:22.369Z,98427.84
2023-03-08T22:15:49.752Z,98437.31
2023-03-08T22:18:17.472Z,98445.09
2023-03-08T22:20:44.838Z,98430.13
2023-03-08T22:23:12.378Z,98420.06
2023-03-08T22:25:39.661Z,98418.59
2023-03-08T22:28:07.624Z,98434.56
2023-03-08T22:30:34.897Z,98425.34
2023-03-08T22:33:02.530Z,98424.91
2023-03-08T22:35:29.883Z,98433.22
2023-03-08T22:37:57.422Z,98446.59
2023-03-08T22:40:24.615Z,98436.06
2023-03-08T22:42:52.131Z,98434.03
2023-03-08T22:45:19.472Z,98440.69
2023-03-08T22:47:47.029Z,98447.22
2023-03-08T22:50:14.344Z,98441.63
2023-03-08T22:52:41.868Z,98446.16
2023-03-08T22:55:09.705Z,98438.91
2023-03-08T22:57:37.977Z,98439.56
2023-03-08T23:00:14.347Z,98439.47
2023-03-08T23:02:43.684Z,98444.09
2023-03-08T23:05:20.187Z,98439.56
2023-03-08T23:07:47.940Z,98447.22
2023-03-08T23:10:17.196Z,98442.25
2023-03-08T23:12:44.736Z,98434.69
2023-03-08T23:15:12.214Z,98452.00
2023-03-08T23:17:40.425Z,98449.38
2023-03-08T23:20:09.328Z,98456.78
2023-03-08T23:22:36.858Z,98457.06
2023-03-08T23:25:05.052Z,98455.09
2023-03-08T23:27:33.789Z,98462.31
2023-03-08T23:30:01.179Z,98447.28
2023-03-08T23:32:28.979Z,98457.94
2023-03-08T23:34:56.522Z,98446.78
2023-03-08T23:37:24.291Z,98461.59
2023-03-08T23:39:51.851Z,98456.66
2023-03-08T23:42:19.416Z,98466.38
2023-03-08T23:44:46.696Z,98455.53
2023-03-08T23:47:14.330Z,98465.09
2023-03-08T23:49:41.562Z,98471.09
2023-03-08T23:52:09.083Z,98469.56
2023-03-08T23:54:36.563Z,98474.28
2023-03-08T23:57:04.133Z,98469.56
2023-03-08T23:59:31.370Z,98468.50
